sensor_id;sensor_type;location;lat;lon;timestamp;pressure;altitude;pressure_sealevel;temperature;humidity
38630;BME280;24384;51.988;4.644;2022-08-19T00:01:21;101766.63;;;20.97;100.00
38630;BME280;24384;51.988;4.644;2022-08-19T00:03:47;101773.00;;;21.06;100.00
38630;BME280;24384;51.988;4.644;2022-08-19T00:06:13;101763.84;;;20.66;100.00
38630;BME280;24384;51.988;4.644;2022-08-19T00:08:38;101753.47;;;20.77;100.00
38630;BME280;24384;51.988;4.644;2022-08-19T00:11:04;101755.56;;;21.11;100.00
38630;BME280;24384;51.988;4.644;2022-08-19T00:13:30;101753.09;;;20.94;100.00
38630;BME280;24384;51.988;4.644;2022-08-19T00:15:56;101765.50;;;20.08;100.00
38630;BME280;24384;51.988;4.644;2022-08-19T00:18:21;101780.22;;;20.38;100.00
38630;BME280;24384;51.988;4.644;2022-08-19T00:20:46;101786.06;;;20.73;100.00
38630;BME280;24384;51.988;4.644;2022-08-19T00:23:12;101789.59;;;20.66;100.00
38630;BME280;24384;51.988;4.644;2022-08-19T00:25:38;101778.69;;;20.40;100.00
38630;BME280;24384;51.988;4.644;2022-08-19T00:28:04;101765.56;;;20.55;100.00
38630;BME280;24384;51.988;4.644;2022-08-19T00:30:30;101765.09;;;20.53;100.00
38630;BME280;24384;51.988;4.644;2022-08-19T00:32:56;101776.56;;;20.53;100.00
38630;BME280;24384;51.988;4.644;2022-08-19T00:35:22;101810.56;;;20.54;100.00
38630;BME280;24384;51.988;4.644;2022-08-19T00:37:48;101798.91;;;20.79;100.00
38630;BME280;24384;51.988;4.644;2022-08-19T00:40:15;101782.91;;;20.93;100.00
38630;BME280;24384;51.988;4.644;2022-08-19T00:42:43;101763.50;;;20.87;100.00
38630;BME280;24384;51.988;4.644;2022-08-19T00:45:20;101752.91;;;20.87;100.00
38630;BME280;24384;51.988;4.644;2022-08-19T00:47:45;101752.63;;;20.77;100.00
38630;BME280;24384;51.988;4.644;2022-08-19T00:50:13;101757.34;;;20.69;100.00
38630;BME280;24384;51.988;4.644;2022-08-19T00:52:43;101776.47;;;20.65;100.00
38630;BME280;24384;51.988;4.644;2022-08-19T00:55:13;101776.75;;;20.60;100.00
38630;BME280;24384;51.988;4.644;2022-08-19T00:57:42;101774.88;;;20.83;100.00
38630;BME280;24384;51.988;4.644;2022-08-19T01:00:13;101765.63;;;21.05;100.00
38630;BME280;24384;51.988;4.644;2022-08-19T01:02:40;101759.53;;;21.42;100.00
38630;BME280;24384;51.988;4.644;2022-08-19T01:05:08;101759.00;;;21.36;100.00
38630;BME280;24384;51.988;4.644;2022-08-19T01:07:35;101778.66;;;21.38;100.00
38630;BME280;24384;51.988;4.644;2022-08-19T01:10:03;101757.84;;;21.06;100.00
38630;BME280;24384;51.988;4.644;2022-08-19T01:12:29;101743.50;;;20.55;100.00
38630;BME280;24384;51.988;4.644;2022-08-19T01:14:55;101755.44;;;20.57;100.00
38630;BME280;24384;51.988;4.644;2022-08-19T01:17:21;101750.25;;;19.88;100.00
38630;BME280;24384;51.988;4.644;2022-08-19T01:19:48;101771.50;;;19.75;100.00
38630;BME280;24384;51.988;4.644;2022-08-19T01:24:48;101801.22;;;20.42;100.00
38630;BME280;24384;51.988;4.644;2022-08-19T01:27:14;101783.59;;;20.71;100.00
38630;BME280;24384;51.988;4.644;2022-08-19T01:29:41;101777.47;;;20.88;100.00
38630;BME280;24384;51.988;4.644;2022-08-19T01:32:09;101784.78;;;21.36;100.00
38630;BME280;24384;51.988;4.644;2022-08-19T01:34:37;101761.34;;;21.50;100.00
38630;BME280;24384;51.988;4.644;2022-08-19T01:37:10;101752.25;;;21.29;100.00
38630;BME280;24384;51.988;4.644;2022-08-19T01:39:38;101747.50;;;21.01;100.00
38630;BME280;24384;51.988;4.644;2022-08-19T01:42:04;101749.84;;;21.11;100.00
38630;BME280;24384;51.988;4.644;2022-08-19T01:44:31;101751.22;;;20.86;100.00
38630;BME280;24384;51.988;4.644;2022-08-19T01:46:57;101763.28;;;20.45;100.00
38630;BME280;24384;51.988;4.644;2022-08-19T01:49:23;101767.97;;;20.53;100.00
38630;BME280;24384;51.988;4.644;2022-08-19T01:51:50;101785.97;;;20.38;100.00
38630;BME280;24384;51.988;4.644;2022-08-19T01:54:18;101787.91;;;20.34;100.00
38630;BME280;24384;51.988;4.644;2022-08-19T01:56:44;101790.16;;;20.72;100.00
38630;BME280;24384;51.988;4.644;2022-08-19T01:59:16;101798.78;;;20.44;100.00
38630;BME280;24384;51.988;4.644;2022-08-19T02:01:42;101795.94;;;20.44;100.00
38630;BME280;24384;51.988;4.644;2022-08-19T02:04:08;101785.50;;;20.67;100.00
38630;BME280;24384;51.988;4.644;2022-08-19T02:06:34;101785.50;;;20.67;100.00
38630;BME280;24384;51.988;4.644;2022-08-19T02:09:00;101805.75;;;20.43;100.00
38630;BME280;24384;51.988;4.644;2022-08-19T02:11:34;101824.47;;;20.56;100.00
38630;BME280;24384;51.988;4.644;2022-08-19T02:14:03;101827.72;;;21.01;100.00
38630;BME280;24384;51.988;4.644;2022-08-19T02:16:29;101811.53;;;21.25;100.00
38630;BME280;24384;51.988;4.644;2022-08-19T02:18:56;101796.56;;;21.15;100.00
38630;BME280;24384;51.988;4.644;2022-08-19T02:21:22;101794.22;;;21.37;100.00
38630;BME280;24384;51.988;4.644;2022-08-19T02:23:49;101786.81;;;21.36;100.00
38630;BME280;24384;51.988;4.644;2022-08-19T02:26:15;101778.09;;;21.48;100.00
38630;BME280;24384;51.988;4.644;2022-08-19T02:28:41;101756.66;;;21.61;100.00
38630;BME280;24384;51.988;4.644;2022-08-19T02:31:12;101756.66;;;21.42;100.00
38630;BME280;24384;51.988;4.644;2022-08-19T02:33:38;101761.44;;;21.18;100.00
38630;BME280;24384;51.988;4.644;2022-08-19T02:36:05;101764.09;;;20.61;100.00
38630;BME280;24384;51.988;4.644;2022-08-19T02:38:31;101789.38;;;20.43;100.00
38630;BME280;24384;51.988;4.644;2022-08-19T02:41:04;101799.63;;;20.29;100.00
38630;BME280;24384;51.988;4.644;2022-08-19T02:43:31;101801.59;;;20.40;100.00
38630;BME280;24384;51.988;4.644;2022-08-19T02:45:57;101796.19;;;20.23;100.00
38630;BME280;24384;51.988;4.644;2022-08-19T02:48:25;101803.78;;;20.47;100.00
38630;BME280;24384;51.988;4.644;2022-08-19T02:50:52;101802.41;;;20.41;100.00
38630;BME280;24384;51.988;4.644;2022-08-19T02:53:25;101800.56;;;20.21;100.00
38630;BME280;24384;51.988;4.644;2022-08-19T02:55:51;101807.97;;;20.22;100.00
38630;BME280;24384;51.988;4.644;2022-08-19T02:58:17;101815.16;;;19.88;100.00
38630;BME280;24384;51.988;4.644;2022-08-19T03:00:47;101825.41;;;19.89;100.00
38630;BME280;24384;51.988;4.644;2022-08-19T03:03:15;101809.25;;;20.08;100.00
38630;BME280;24384;51.988;4.644;2022-08-19T03:05:42;101806.72;;;20.07;100.00
38630;BME280;24384;51.988;4.644;2022-08-19T03:08:10;101798.09;;;20.62;100.00
38630;BME280;24384;51.988;4.644;2022-08-19T03:10:47;101804.44;;;20.56;100.00
38630;BME280;24384;51.988;4.644;2022-08-19T03:13:14;101790.78;;;20.65;100.00
38630;BME280;24384;51.988;4.644;2022-08-19T03:15:42;101778.88;;;20.79;100.00
38630;BME280;24384;51.988;4.644;2022-08-19T03:18:07;101767.56;;;21.01;100.00
38630;BME280;24384;51.988;4.644;2022-08-19T03:20:33;101751.16;;;20.83;100.00
38630;BME280;24384;51.988;4.644;2022-08-19T03:23:00;101736.59;;;21.07;100.00
38630;BME280;24384;51.988;4.644;2022-08-19T03:25:26;101734.81;;;21.18;100.00
38630;BME280;24384;51.988;4.644;2022-08-19T03:27:52;101720.09;;;20.85;100.00
38630;BME280;24384;51.988;4.644;2022-08-19T03:30:18;101723.31;;;20.99;100.00
38630;BME280;24384;51.988;4.644;2022-08-19T03:32:43;101717.59;;;20.83;100.00
38630;BME280;24384;51.988;4.644;2022-08-19T03:35:09;101717.84;;;20.43;100.00
38630;BME280;24384;51.988;4.644;2022-08-19T03:37:34;101730.28;;;20.67;100.00
38630;BME280;24384;51.988;4.644;2022-08-19T03:40:00;101741.66;;;20.63;100.00
38630;BME280;24384;51.988;4.644;2022-08-19T03:42:28;101755.34;;;20.54;100.00
38630;BME280;24384;51.988;4.644;2022-08-19T03:44:54;101777.50;;;20.57;100.00
38630;BME280;24384;51.988;4.644;2022-08-19T03:47:20;101779.34;;;20.65;100.00
38630;BME280;24384;51.988;4.644;2022-08-19T03:49:45;101776.81;;;20.63;100.00
38630;BME280;24384;51.988;4.644;2022-08-19T03:52:11;101790.59;;;20.42;100.00
38630;BME280;24384;51.988;4.644;2022-08-19T03:54:37;101799.56;;;20.56;100.00
38630;BME280;24384;51.988;4.644;2022-08-19T03:57:04;101783.22;;;20.57;100.00
38630;BME280;24384;51.988;4.644;2022-08-19T03:59:32;101783.84;;;20.35;100.00
38630;BME280;24384;51.988;4.644;2022-08-19T04:01:59;101778.25;;;19.55;100.00
38630;BME280;24384;51.988;4.644;2022-08-19T04:04:26;101801.19;;;19.71;100.00
38630;BME280;24384;51.988;4.644;2022-08-19T04:06:52;101804.72;;;20.07;100.00
38630;BME280;24384;51.988;4.644;2022-08-19T04:09:18;101785.22;;;20.41;100.00
38630;BME280;24384;51.988;4.644;2022-08-19T04:11:46;101788.00;;;20.53;100.00
38630;BME280;24384;51.988;4.644;2022-08-19T04:14:15;101782.75;;;20.71;100.00
38630;BME280;24384;51.988;4.644;2022-08-19T04:16:42;101779.22;;;21.08;100.00
38630;BME280;24384;51.988;4.644;2022-08-19T04:19:10;101800.78;;;20.71;100.00
38630;BME280;24384;51.988;4.644;2022-08-19T04:21:35;101812.84;;;20.49;100.00
38630;BME280;24384;51.988;4.644;2022-08-19T04:24:01;101819.97;;;20.71;100.00
38630;BME280;24384;51.988;4.644;2022-08-19T04:26:30;101828.91;;;20.69;100.00
38630;BME280;24384;51.988;4.644;2022-08-19T04:28:58;101830.75;;;20.93;100.00
38630;BME280;24384;51.988;4.644;2022-08-19T04:31:27;101818.56;;;20.96;100.00
38630;BME280;24384;51.988;4.644;2022-08-19T04:33:55;101833.97;;;20.29;100.00
38630;BME280;24384;51.988;4.644;2022-08-19T04:36:27;101860.16;;;20.31;100.00
38630;BME280;24384;51.988;4.644;2022-08-19T04:38:55;101876.09;;;20.04;100.00
38630;BME280;24384;51.988;4.644;2022-08-19T04:41:21;101908.63;;;20.12;100.00
38630;BME280;24384;51.988;4.644;2022-08-19T04:44:05;101938.06;;;20.12;100.00
38630;BME280;24384;51.988;4.644;2022-08-19T04:46:31;101972.03;;;20.14;100.00
38630;BME280;24384;51.988;4.644;2022-08-19T04:48:58;101971.88;;;20.62;100.00
38630;BME280;24384;51.988;4.644;2022-08-19T04:51:24;101945.84;;;20.67;100.00
38630;BME280;24384;51.988;4.644;2022-08-19T04:53:50;101944.22;;;20.82;100.00
38630;BME280;24384;51.988;4.644;2022-08-19T04:56:17;101946.38;;;20.57;100.00
38630;BME280;24384;51.988;4.644;2022-08-19T04:58:45;101946.31;;;21.12;100.00
38630;BME280;24384;51.988;4.644;2022-08-19T05:01:26;101954.69;;;21.05;100.00
38630;BME280;24384;51.988;4.644;2022-08-19T05:03:54;101947.59;;;21.31;100.00
38630;BME280;24384;51.988;4.644;2022-08-19T05:06:20;101942.69;;;21.47;100.00
38630;BME280;24384;51.988;4.644;2022-08-19T05:08:47;101947.69;;;21.18;100.00
38630;BME280;24384;51.988;4.644;2022-08-19T05:11:17;101962.19;;;21.10;100.00
38630;BME280;24384;51.988;4.644;2022-08-19T05:13:44;101968.13;;;21.17;100.00
38630;BME280;24384;51.988;4.644;2022-08-19T05:16:11;101973.13;;;20.92;100.00
38630;BME280;24384;51.988;4.644;2022-08-19T05:18:38;101979.88;;;21.28;100.00
38630;BME280;24384;51.988;4.644;2022-08-19T05:21:23;101970.81;;;21.26;100.00
38630;BME280;24384;51.988;4.644;2022-08-19T05:24:07;101979.69;;;21.36;100.00
38630;BME280;24384;51.988;4.644;2022-08-19T05:26:40;101989.28;;;21.12;100.00
38630;BME280;24384;51.988;4.644;2022-08-19T05:29:07;101997.13;;;21.15;100.00
38630;BME280;24384;51.988;4.644;2022-08-19T05:31:34;102004.97;;;20.75;100.00
38630;BME280;24384;51.988;4.644;2022-08-19T05:34:00;102025.25;;;20.98;100.00
38630;BME280;24384;51.988;4.644;2022-08-19T05:36:27;102032.28;;;21.00;100.00
38630;BME280;24384;51.988;4.644;2022-08-19T05:38:53;102038.84;;;21.29;100.00
38630;BME280;24384;51.988;4.644;2022-08-19T05:41:20;102020.34;;;21.57;100.00
38630;BME280;24384;51.988;4.644;2022-08-19T05:43:55;101978.50;;;22.03;100.00
38630;BME280;24384;51.988;4.644;2022-08-19T05:46:21;101951.28;;;22.13;100.00
38630;BME280;24384;51.988;4.644;2022-08-19T05:48:47;101928.00;;;22.18;100.00
38630;BME280;24384;51.988;4.644;2022-08-19T05:51:14;101913.44;;;22.26;100.00
38630;BME280;24384;51.988;4.644;2022-08-19T05:53:40;101915.69;;;22.37;100.00
38630;BME280;24384;51.988;4.644;2022-08-19T05:56:07;101915.75;;;22.40;100.00
38630;BME280;24384;51.988;4.644;2022-08-19T05:58:34;101897.88;;;22.27;100.00
38630;BME280;24384;51.988;4.644;2022-08-19T06:01:00;101904.13;;;21.95;100.00
38630;BME280;24384;51.988;4.644;2022-08-19T06:03:30;101903.28;;;21.94;100.00
38630;BME280;24384;51.988;4.644;2022-08-19T06:05:56;101921.72;;;21.93;100.00
38630;BME280;24384;51.988;4.644;2022-08-19T06:08:23;101922.78;;;22.43;100.00
38630;BME280;24384;51.988;4.644;2022-08-19T06:10:49;101903.94;;;22.83;100.00
38630;BME280;24384;51.988;4.644;2022-08-19T06:13:14;101861.44;;;22.93;100.00
38630;BME280;24384;51.988;4.644;2022-08-19T06:15:39;101861.22;;;22.40;100.00
38630;BME280;24384;51.988;4.644;2022-08-19T06:18:09;101870.88;;;23.16;100.00
38630;BME280;24384;51.988;4.644;2022-08-19T06:20:34;101826.72;;;23.54;100.00
38630;BME280;24384;51.988;4.644;2022-08-19T06:22:59;101813.97;;;23.02;100.00
38630;BME280;24384;51.988;4.644;2022-08-19T06:25:25;101812.31;;;23.27;100.00
38630;BME280;24384;51.988;4.644;2022-08-19T06:27:50;101812.97;;;23.40;100.00
38630;BME280;24384;51.988;4.644;2022-08-19T06:30:15;101819.94;;;22.90;100.00
38630;BME280;24384;51.988;4.644;2022-08-19T06:32:41;101825.72;;;22.71;100.00
38630;BME280;24384;51.988;4.644;2022-08-19T06:35:07;101844.59;;;22.49;100.00
38630;BME280;24384;51.988;4.644;2022-08-19T06:37:32;101859.22;;;22.21;100.00
38630;BME280;24384;51.988;4.644;2022-08-19T06:39:58;101868.00;;;22.51;100.00
38630;BME280;24384;51.988;4.644;2022-08-19T06:42:26;101867.22;;;22.54;100.00
38630;BME280;24384;51.988;4.644;2022-08-19T06:44:54;101842.50;;;23.14;100.00
38630;BME280;24384;51.988;4.644;2022-08-19T06:47:26;101826.44;;;23.62;100.00
38630;BME280;24384;51.988;4.644;2022-08-19T06:49:55;101819.63;;;23.48;100.00
38630;BME280;24384;51.988;4.644;2022-08-19T06:52:24;101810.19;;;23.77;100.00
38630;BME280;24384;51.988;4.644;2022-08-19T06:54:53;101805.91;;;23.37;100.00
38630;BME280;24384;51.988;4.644;2022-08-19T06:57:21;101797.56;;;23.55;100.00
38630;BME280;24384;51.988;4.644;2022-08-19T06:59:47;101801.13;;;23.75;100.00
38630;BME280;24384;51.988;4.644;2022-08-19T07:02:15;101798.91;;;23.94;100.00
38630;BME280;24384;51.988;4.644;2022-08-19T07:04:41;101803.25;;;23.25;100.00
38630;BME280;24384;51.988;4.644;2022-08-19T07:07:12;101804.94;;;23.82;100.00
38630;BME280;24384;51.988;4.644;2022-08-19T07:09:40;101797.53;;;23.52;100.00
38630;BME280;24384;51.988;4.644;2022-08-19T07:12:10;101798.28;;;23.78;100.00
38630;BME280;24384;51.988;4.644;2022-08-19T07:14:36;101805.38;;;23.55;100.00
38630;BME280;24384;51.988;4.644;2022-08-19T07:17:05;101810.69;;;24.12;100.00
38630;BME280;24384;51.988;4.644;2022-08-19T07:19:34;101806.88;;;23.75;100.00
38630;BME280;24384;51.988;4.644;2022-08-19T07:22:02;101796.66;;;24.11;100.00
38630;BME280;24384;51.988;4.644;2022-08-19T07:24:28;101792.94;;;24.47;100.00
38630;BME280;24384;51.988;4.644;2022-08-19T07:26:57;101779.59;;;24.28;100.00
38630;BME280;24384;51.988;4.644;2022-08-19T07:29:29;101753.31;;;25.28;100.00
38630;BME280;24384;51.988;4.644;2022-08-19T07:31:55;101738.22;;;24.91;100.00
38630;BME280;24384;51.988;4.644;2022-08-19T07:34:22;101735.09;;;24.63;100.00
38630;BME280;24384;51.988;4.644;2022-08-19T07:36:49;101743.44;;;24.75;100.00
38630;BME280;24384;51.988;4.644;2022-08-19T07:39:21;101739.03;;;24.88;100.00
38630;BME280;24384;51.988;4.644;2022-08-19T07:41:47;101739.28;;;24.72;100.00
38630;BME280;24384;51.988;4.644;2022-08-19T07:44:14;101730.09;;;25.07;100.00
38630;BME280;24384;51.988;4.644;2022-08-19T07:46:42;101723.56;;;25.13;100.00
38630;BME280;24384;51.988;4.644;2022-08-19T07:49:09;101723.84;;;24.98;100.00
38630;BME280;24384;51.988;4.644;2022-08-19T07:51:39;101728.25;;;24.81;100.00
38630;BME280;24384;51.988;4.644;2022-08-19T07:54:05;101718.47;;;24.93;100.00
38630;BME280;24384;51.988;4.644;2022-08-19T07:56:31;101727.78;;;24.76;100.00
38630;BME280;24384;51.988;4.644;2022-08-19T07:58:56;101743.31;;;24.20;100.00
38630;BME280;24384;51.988;4.644;2022-08-19T08:01:25;101765.53;;;23.90;100.00
38630;BME280;24384;51.988;4.644;2022-08-19T08:03:56;101787.03;;;24.29;100.00
38630;BME280;24384;51.988;4.644;2022-08-19T08:06:40;101769.53;;;24.48;100.00
38630;BME280;24384;51.988;4.644;2022-08-19T08:09:31;101766.00;;;24.25;100.00
38630;BME280;24384;51.988;4.644;2022-08-19T08:12:00;101774.09;;;24.53;100.00
38630;BME280;24384;51.988;4.644;2022-08-19T08:15:04;101773.00;;;24.28;100.00
38630;BME280;24384;51.988;4.644;2022-08-19T08:17:25;101772.75;;;24.40;100.00
38630;BME280;24384;51.988;4.644;2022-08-19T08:19:51;101762.28;;;24.25;100.00
38630;BME280;24384;51.988;4.644;2022-08-19T08:22:20;101769.75;;;24.29;100.00
38630;BME280;24384;51.988;4.644;2022-08-19T08:25:15;101771.03;;;24.35;100.00
38630;BME280;24384;51.988;4.644;2022-08-19T08:27:42;101762.78;;;24.74;100.00
38630;BME280;24384;51.988;4.644;2022-08-19T08:30:10;101755.56;;;24.98;100.00
38630;BME280;24384;51.988;4.644;2022-08-19T08:32:38;101765.34;;;24.86;100.00
38630;BME280;24384;51.988;4.644;2022-08-19T08:35:11;101759.13;;;24.81;100.00
38630;BME280;24384;51.988;4.644;2022-08-19T08:37:37;101758.00;;;24.92;100.00
38630;BME280;24384;51.988;4.644;2022-08-19T08:42:58;101752.88;;;25.23;100.00
38630;BME280;24384;51.988;4.644;2022-08-19T08:45:28;101754.72;;;24.94;100.00
38630;BME280;24384;51.988;4.644;2022-08-19T08:47:56;101760.59;;;24.61;100.00
38630;BME280;24384;51.988;4.644;2022-08-19T08:50:32;101760.28;;;24.73;100.00
38630;BME280;24384;51.988;4.644;2022-08-19T08:53:01;101753.47;;;25.49;100.00
38630;BME280;24384;51.988;4.644;2022-08-19T08:55:29;101737.88;;;25.64;100.00
38630;BME280;24384;51.988;4.644;2022-08-19T08:58:25;101737.94;;;25.10;100.00
38630;BME280;24384;51.988;4.644;2022-08-19T09:00:51;101738.66;;;25.58;100.00
38630;BME280;24384;51.988;4.644;2022-08-19T09:03:23;101729.63;;;25.66;100.00
38630;BME280;24384;51.988;4.644;2022-08-19T09:06:01;101726.72;;;25.59;100.00
38630;BME280;24384;51.988;4.644;2022-08-19T09:11:19;101706.34;;;26.67;100.00
38630;BME280;24384;51.988;4.644;2022-08-19T09:14:10;101698.84;;;27.22;100.00
38630;BME280;24384;51.988;4.644;2022-08-19T09:16:40;101700.56;;;26.70;100.00
38630;BME280;24384;51.988;4.644;2022-08-19T09:19:07;101690.25;;;26.91;100.00
38630;BME280;24384;51.988;4.644;2022-08-19T09:21:32;101673.94;;;27.57;100.00
38630;BME280;24384;51.988;4.644;2022-08-19T09:24:00;101670.03;;;27.91;100.00
38630;BME280;24384;51.988;4.644;2022-08-19T09:26:26;101660.47;;;28.64;100.00
38630;BME280;24384;51.988;4.644;2022-08-19T09:28:52;101652.22;;;27.96;100.00
38630;BME280;24384;51.988;4.644;2022-08-19T09:31:23;101646.78;;;28.61;100.00
38630;BME280;24384;51.988;4.644;2022-08-19T09:33:50;101635.38;;;28.39;100.00
38630;BME280;24384;51.988;4.644;2022-08-19T09:36:18;101630.06;;;29.50;100.00
38630;BME280;24384;51.988;4.644;2022-08-19T09:38:44;101628.97;;;28.59;100.00
38630;BME280;24384;51.988;4.644;2022-08-19T09:41:15;101638.50;;;28.08;100.00
38630;BME280;24384;51.988;4.644;2022-08-19T09:43:43;101645.66;;;26.85;100.00
38630;BME280;24384;51.988;4.644;2022-08-19T09:46:09;101645.84;;;27.57;100.00
38630;BME280;24384;51.988;4.644;2022-08-19T09:48:36;101647.19;;;27.24;100.00
38630;BME280;24384;51.988;4.644;2022-08-19T09:51:11;101646.47;;;26.92;100.00
38630;BME280;24384;51.988;4.644;2022-08-19T09:53:38;101665.47;;;26.40;100.00
38630;BME280;24384;51.988;4.644;2022-08-19T09:56:05;101667.94;;;26.24;100.00
38630;BME280;24384;51.988;4.644;2022-08-19T09:58:32;101670.78;;;25.96;100.00
38630;BME280;24384;51.988;4.644;2022-08-19T10:01:00;101676.94;;;25.98;100.00
38630;BME280;24384;51.988;4.644;2022-08-19T10:03:27;101679.84;;;26.01;100.00
38630;BME280;24384;51.988;4.644;2022-08-19T10:05:53;101677.34;;;25.93;100.00
38630;BME280;24384;51.988;4.644;2022-08-19T10:08:22;101677.56;;;25.38;100.00
38630;BME280;24384;51.988;4.644;2022-08-19T10:10:49;101694.13;;;25.52;100.00
38630;BME280;24384;51.988;4.644;2022-08-19T10:13:17;101705.00;;;25.11;100.00
38630;BME280;24384;51.988;4.644;2022-08-19T10:15:43;101709.63;;;25.26;100.00
38630;BME280;24384;51.988;4.644;2022-08-19T10:18:09;101700.53;;;25.21;100.00
38630;BME280;24384;51.988;4.644;2022-08-19T10:20:34;101708.78;;;25.22;100.00
38630;BME280;24384;51.988;4.644;2022-08-19T10:23:01;101710.47;;;25.30;100.00
38630;BME280;24384;51.988;4.644;2022-08-19T10:25:27;101713.00;;;25.39;100.00
38630;BME280;24384;51.988;4.644;2022-08-19T10:27:53;101700.06;;;25.91;100.00
38630;BME280;24384;51.988;4.644;2022-08-19T10:30:18;101695.22;;;26.44;100.00
38630;BME280;24384;51.988;4.644;2022-08-19T10:32:44;101687.34;;;26.52;100.00
38630;BME280;24384;51.988;4.644;2022-08-19T10:35:11;101690.25;;;26.31;100.00
38630;BME280;24384;51.988;4.644;2022-08-19T10:37:38;101697.47;;;25.64;100.00
38630;BME280;24384;51.988;4.644;2022-08-19T10:40:07;101698.34;;;25.03;100.00
38630;BME280;24384;51.988;4.644;2022-08-19T10:42:34;101706.38;;;25.31;100.00
38630;BME280;24384;51.988;4.644;2022-08-19T10:45:02;101702.22;;;25.25;100.00
38630;BME280;24384;51.988;4.644;2022-08-19T10:47:28;101696.75;;;25.92;100.00
38630;BME280;24384;51.988;4.644;2022-08-19T10:49:54;101675.38;;;26.89;100.00
38630;BME280;24384;51.988;4.644;2022-08-19T10:52:44;101656.13;;;27.62;100.00
38630;BME280;24384;51.988;4.644;2022-08-19T10:55:10;101643.88;;;27.29;100.00
38630;BME280;24384;51.988;4.644;2022-08-19T10:57:54;101645.06;;;27.39;100.00
38630;BME280;24384;51.988;4.644;2022-08-19T11:00:21;101637.19;;;27.39;100.00
38630;BME280;24384;51.988;4.644;2022-08-19T11:02:47;101639.72;;;27.30;100.00
38630;BME280;24384;51.988;4.644;2022-08-19T11:05:13;101646.09;;;26.44;100.00
38630;BME280;24384;51.988;4.644;2022-08-19T11:07:40;101650.22;;;26.43;100.00
38630;BME280;24384;51.988;4.644;2022-08-19T11:10:11;101662.47;;;25.77;100.00
38630;BME280;24384;51.988;4.644;2022-08-19T11:12:38;101656.22;;;25.60;100.00
38630;BME280;24384;51.988;4.644;2022-08-19T11:15:07;101653.69;;;25.45;100.00
38630;BME280;24384;51.988;4.644;2022-08-19T11:17:34;101655.91;;;25.90;100.00
38630;BME280;24384;51.988;4.644;2022-08-19T11:20:01;101661.66;;;25.83;100.00
38630;BME280;24384;51.988;4.644;2022-08-19T11:22:29;101662.84;;;25.61;100.00
38630;BME280;24384;51.988;4.644;2022-08-19T11:24:54;101672.53;;;25.25;100.00
38630;BME280;24384;51.988;4.644;2022-08-19T11:27:20;101683.22;;;25.17;100.00
38630;BME280;24384;51.988;4.644;2022-08-19T11:29:46;101683.97;;;25.07;100.00
38630;BME280;24384;51.988;4.644;2022-08-19T11:32:11;101688.06;;;25.02;100.00
38630;BME280;24384;51.988;4.644;2022-08-19T11:34:37;101704.91;;;24.93;100.00
38630;BME280;24384;51.988;4.644;2022-08-19T11:37:04;101711.06;;;24.95;100.00
38630;BME280;24384;51.988;4.644;2022-08-19T11:39:32;101703.91;;;25.33;100.00
38630;BME280;24384;51.988;4.644;2022-08-19T11:41:58;101709.56;;;26.05;100.00
38630;BME280;24384;51.988;4.644;2022-08-19T11:44:25;101691.00;;;26.10;100.00
38630;BME280;24384;51.988;4.644;2022-08-19T11:46:50;101673.72;;;26.70;100.00
38630;BME280;24384;51.988;4.644;2022-08-19T11:49:18;101677.03;;;26.61;100.00
38630;BME280;24384;51.988;4.644;2022-08-19T11:51:45;101667.53;;;26.33;100.00
38630;BME280;24384;51.988;4.644;2022-08-19T11:54:13;101672.91;;;26.34;100.00
38630;BME280;24384;51.988;4.644;2022-08-19T11:56:39;101670.41;;;26.15;100.00
38630;BME280;24384;51.988;4.644;2022-08-19T11:59:05;101677.75;;;25.88;100.00
38630;BME280;24384;51.988;4.644;2022-08-19T12:01:30;101692.13;;;25.70;100.00
38630;BME280;24384;51.988;4.644;2022-08-19T12:03:57;101689.22;;;25.63;100.00
38630;BME280;24384;51.988;4.644;2022-08-19T12:06:26;101693.44;;;25.87;100.00
38630;BME280;24384;51.988;4.644;2022-08-19T12:08:54;101670.81;;;26.77;100.00
38630;BME280;24384;51.988;4.644;2022-08-19T12:11:20;101656.66;;;27.32;100.00
38630;BME280;24384;51.988;4.644;2022-08-19T12:13:46;101658.34;;;27.33;100.00
38630;BME280;24384;51.988;4.644;2022-08-19T12:16:15;101657.22;;;27.92;100.00
38630;BME280;24384;51.988;4.644;2022-08-19T12:18:42;101644.94;;;27.71;100.00
38630;BME280;24384;51.988;4.644;2022-08-19T12:21:17;101642.97;;;28.23;100.00
38630;BME280;24384;51.988;4.644;2022-08-19T12:23:43;101649.50;;;27.65;100.00
38630;BME280;24384;51.988;4.644;2022-08-19T12:26:11;101644.25;;;27.35;100.00
38630;BME280;24384;51.988;4.644;2022-08-19T12:28:37;101639.50;;;27.80;100.00
38630;BME280;24384;51.988;4.644;2022-08-19T12:31:02;101630.16;;;28.17;100.00
38630;BME280;24384;51.988;4.644;2022-08-19T12:33:28;101630.88;;;27.69;100.00
38630;BME280;24384;51.988;4.644;2022-08-19T12:35:54;101633.53;;;27.32;100.00
38630;BME280;24384;51.988;4.644;2022-08-19T12:38:24;101631.19;;;26.99;100.00
38630;BME280;24384;51.988;4.644;2022-08-19T12:40:50;101645.25;;;26.26;100.00
38630;BME280;24384;51.988;4.644;2022-08-19T12:43:17;101653.09;;;26.47;100.00
38630;BME280;24384;51.988;4.644;2022-08-19T12:45:46;101649.75;;;26.98;100.00
38630;BME280;24384;51.988;4.644;2022-08-19T12:48:15;101653.09;;;26.61;100.00
38630;BME280;24384;51.988;4.644;2022-08-19T12:50:43;101652.25;;;26.78;100.00
38630;BME280;24384;51.988;4.644;2022-08-19T12:53:10;101646.03;;;26.94;100.00